Time;durP1;ratioP1;P1;durP2;ratioP2;P2;SDS_P1;SDS_P2;PMS_P1;PMS_P2;Temp;Humidity;BMP_temperature;BMP_pressure;BME280_temperature;BME280_humidity;BME280_pressure;Samples;Min_cycle;Max_cycle;Signal;HPM_P1;HPM_P2
2022/08/31 00:08:06;;;;;;;3.50;1.70;;;23.90;60.10;;;;;;220741;1267;24791;-52
2022/08/31 00:13:11;;;;;;;2.60;1.40;;;23.90;60.10;;;;;;220957;1267;22550;-53
2022/08/31 00:18:16;;;;;;;3.60;1.40;;;23.90;60.20;;;;;;220295;1267;23945;-55
2022/08/31 00:23:21;;;;;;;2.50;1.50;;;23.80;60.40;;;;;;220433;1267;26570;-52
2022/08/31 00:28:24;;;;;;;4.00;1.70;;;23.90;59.80;;;;;;220254;1267;24258;-53
2022/08/31 00:33:28;;;;;;;4.20;1.60;;;23.80;60.50;;;;;;220476;1267;22551;-53
2022/08/31 00:38:34;;;;;;;2.90;1.50;;;23.80;60.30;;;;;;220419;1267;22523;-53
2022/08/31 00:44:01;;;;;;;2.90;1.60;;;23.80;60.30;;;;;;220641;1267;22534;-52
2022/08/31 00:49:12;;;;;;;3.40;1.60;;;23.80;60.40;;;;;;220196;1267;25427;-55
2022/08/31 00:54:19;;;;;;;2.70;1.50;;;23.80;60.70;;;;;;220291;1267;25088;-54
2022/08/31 00:59:24;;;;;;;2.40;1.50;;;23.80;60.40;;;;;;220465;1267;25251;-52
2022/08/31 01:04:29;;;;;;;2.30;1.60;;;23.80;60.40;;;;;;220555;1267;23891;-53
2022/08/31 01:09:36;;;;;;;4.20;1.60;;;23.80;60.40;;;;;;220281;1267;24208;-50
2022/08/31 01:14:41;;;;;;;2.90;1.50;;;23.80;60.40;;;;;;220070;1267;25380;-50
2022/08/31 01:19:53;;;;;;;2.20;1.40;;;23.80;60.50;;;;;;220323;1267;25345;-52
2022/08/31 01:24:57;;;;;;;3.40;1.60;;;23.80;60.80;;;;;;220829;1267;22544;-52
2022/08/31 01:30:05;;;;;;;3.90;1.40;;;23.80;60.50;;;;;;220635;1267;24256;-52
2022/08/31 01:35:08;;;;;;;2.70;1.40;;;23.80;60.50;;;;;;220528;1267;24286;-54
2022/08/31 01:40:13;;;;;;;3.50;1.60;;;23.80;60.60;;;;;;220538;1267;25453;-52
2022/08/31 01:45:18;;;;;;;4.20;1.80;;;23.80;60.60;;;;;;220477;1267;25234;-53
2022/08/31 01:50:21;;;;;;;3.30;1.40;;;23.80;60.60;;;;;;220203;1267;24215;-52
2022/08/31 01:55:26;;;;;;;2.40;1.40;;;23.70;60.60;;;;;;220222;1267;22563;-52
2022/08/31 02:00:30;;;;;;;2.90;1.60;;;23.80;60.60;;;;;;220243;1267;25283;-50
2022/08/31 02:05:35;;;;;;;3.40;1.70;;;23.80;60.20;;;;;;220796;1267;22551;-52
2022/08/31 02:10:39;;;;;;;3.60;1.30;;;23.70;60.60;;;;;;220506;1267;22550;-54
2022/08/31 02:15:49;;;;;;;3.50;1.50;;;23.70;60.60;;;;;;220794;1267;23906;-55
2022/08/31 02:20:54;;;;;;;2.30;1.40;;;23.80;61.00;;;;;;220565;1267;22657;-55
2022/08/31 02:25:57;;;;;;;2.90;1.60;;;23.70;61.00;;;;;;220414;1268;25349;-53
2022/08/31 02:31:02;;;;;;;2.80;1.60;;;23.70;60.10;;;;;;220547;1267;22528;-55
2022/08/31 02:36:07;;;;;;;2.70;1.70;;;23.70;60.70;;;;;;220096;1267;24913;-52
2022/08/31 02:41:12;;;;;;;3.10;1.70;;;23.70;60.70;;;;;;220450;1267;24324;-52
2022/08/31 02:46:17;;;;;;;2.30;1.40;;;23.70;60.70;;;;;;220443;1267;25452;-53
2022/08/31 02:51:32;;;;;;;2.60;1.50;;;23.60;61.00;;;;;;220493;1267;22528;-52
2022/08/31 02:56:37;;;;;;;3.90;1.40;;;23.70;60.70;;;;;;220582;1267;22549;-52
2022/08/31 03:01:41;;;;;;;4.20;1.60;;;23.60;60.70;;;;;;220474;1267;23025;-53
2022/08/31 03:06:55;;;;;;;3.20;1.40;;;23.60;60.70;;;;;;220438;1267;22540;-52
2022/08/31 03:12:06;;;;;;;3.10;1.60;;;23.60;60.70;;;;;;220396;1267;25409;-54
2022/08/31 03:17:10;;;;;;;2.70;1.50;;;23.60;60.80;;;;;;220525;1267;22541;-54
2022/08/31 03:22:14;;;;;;;2.20;1.30;;;23.60;60.80;;;;;;220278;1267;22530;-52
2022/08/31 03:27:19;;;;;;;4.20;1.70;;;23.60;60.80;;;;;;220258;1267;22546;-51
2022/08/31 03:32:26;;;;;;;2.30;1.30;;;23.60;60.80;;;;;;220420;1267;25243;-51
2022/08/31 03:37:29;;;;;;;2.70;1.40;;;23.60;60.80;;;;;;220455;1267;22760;-53
2022/08/31 03:42:34;;;;;;;3.80;1.70;;;23.60;61.20;;;;;;220546;1267;25307;-53
2022/08/31 03:47:40;;;;;;;2.10;1.50;;;23.60;60.80;;;;;;220284;1267;24199;-57
2022/08/31 03:52:47;;;;;;;2.50;1.50;;;23.60;60.80;;;;;;220403;1267;25349;-52
2022/08/31 03:57:54;;;;;;;3.00;1.30;;;23.60;61.10;;;;;;220038;1267;22532;-52
2022/08/31 04:02:59;;;;;;;3.10;1.60;;;23.50;60.70;;;;;;220661;1267;22603;-54
2022/08/31 04:08:05;;;;;;;2.90;1.40;;;23.50;60.70;;;;;;220466;1267;25281;-53
2022/08/31 04:13:28;;;;;;;4.60;1.30;;;23.50;60.70;;;;;;220300;1267;22532;-52
2022/08/31 04:19:04;;;;;;;2.20;1.40;;;23.50;60.60;;;;;;220189;1266;24434;-53
2022/08/31 04:24:13;;;;;;;2.30;1.40;;;23.50;61.00;;;;;;220465;1267;25501;-52
2022/08/31 04:29:17;;;;;;;3.30;1.30;;;23.50;60.70;;;;;;220539;1267;22553;-53
2022/08/31 04:34:21;;;;;;;3.00;1.50;;;23.50;60.70;;;;;;220296;1267;24307;-55
2022/08/31 04:39:25;;;;;;;2.90;1.70;;;23.50;60.70;;;;;;220163;1267;24451;-55
2022/08/31 04:44:33;;;;;;;3.70;1.60;;;23.50;60.70;;;;;;219973;1267;22580;-54
2022/08/31 04:49:38;;;;;;;2.80;1.50;;;23.50;60.80;;;;;;220115;1267;25243;-53
2022/08/31 04:54:41;;;;;;;3.60;1.80;;;23.50;60.70;;;;;;219113;1267;1355905;-53
2022/08/31 04:59:45;;;;;;;4.10;1.80;;;23.50;61.30;;;;;;220119;1267;22576;-53
2022/08/31 05:05:09;;;;;;;3.50;1.80;;;23.40;60.90;;;;;;220414;1267;24215;-52
2022/08/31 05:10:17;;;;;;;4.20;1.60;;;23.40;60.80;;;;;;220213;1267;22531;-54
2022/08/31 05:15:21;;;;;;;3.10;1.80;;;23.40;60.80;;;;;;220042;1267;22680;-56
2022/08/31 05:20:25;;;;;;;3.50;1.70;;;23.50;60.80;;;;;;220094;1267;22531;-55
2022/08/31 05:25:29;;;;;;;5.40;1.60;;;23.50;60.80;;;;;;220257;1267;22547;-54
2022/08/31 05:30:33;;;;;;;4.00;2.10;;;23.50;60.90;;;;;;220091;1270;22569;-50
2022/08/31 05:35:43;;;;;;;2.70;1.70;;;23.40;60.80;;;;;;220303;1267;22553;-54
2022/08/31 05:40:51;;;;;;;4.40;1.80;;;23.40;60.80;;;;;;220538;1267;24963;-53
2022/08/31 05:45:55;;;;;;;4.00;2.20;;;23.40;60.80;;;;;;220715;1267;22620;-52
2022/08/31 05:51:01;;;;;;;4.00;2.20;;;23.40;60.90;;;;;;220261;1268;24225;-54
2022/08/31 05:56:10;;;;;;;3.10;1.70;;;23.40;60.80;;;;;;220264;1270;24276;-51
2022/08/31 06:01:22;;;;;;;4.20;2.10;;;23.40;60.80;;;;;;220427;1267;24218;-54
2022/08/31 06:06:43;;;;;;;4.60;2.00;;;23.40;61.00;;;;;;219975;1268;25668;-53
2022/08/31 06:12:19;;;;;;;9.90;2.20;;;23.40;61.40;;;;;;219867;1267;22559;-53
2022/08/31 06:17:23;;;;;;;3.20;2.10;;;23.50;61.20;;;;;;219974;1267;22531;-52
2022/08/31 06:22:28;;;;;;;4.40;2.10;;;23.50;61.00;;;;;;219915;1267;22643;-52
2022/08/31 06:27:39;;;;;;;6.20;1.90;;;23.50;60.90;;;;;;220557;1267;24250;-49
2022/08/31 06:32:54;;;;;;;4.80;2.00;;;23.50;60.90;;;;;;220377;1267;22587;-55
2022/08/31 06:38:21;;;;;;;3.20;2.10;;;23.50;61.20;;;;;;220051;1267;22574;-53
2022/08/31 06:43:51;;;;;;;3.10;1.90;;;23.60;61.20;;;;;;220057;1267;22720;-53
2022/08/31 06:49:21;;;;;;;3.80;1.80;;;23.60;61.20;;;;;;219940;1267;22571;-55
2022/08/31 06:54:25;;;;;;;3.40;1.90;;;23.60;61.20;;;;;;220095;1267;22550;-53
2022/08/31 06:59:52;;;;;;;4.10;2.10;;;23.60;61.10;;;;;;220126;1267;25204;-54
2022/08/31 07:05:32;;;;;;;3.60;1.90;;;23.60;61.20;;;;;;219942;1267;22537;-53
2022/08/31 07:10:45;;;;;;;2.70;1.80;;;23.60;61.10;;;;;;220386;1267;22710;-53
2022/08/31 07:15:49;;;;;;;3.10;1.80;;;23.60;61.20;;;;;;220298;1267;24236;-51
2022/08/31 07:20:53;;;;;;;2.70;1.70;;;23.60;61.10;;;;;;220475;1267;22544;-52
2022/08/31 07:26:09;;;;;;;3.60;1.90;;;23.60;61.20;;;;;;220078;1270;24875;-54
2022/08/31 07:31:14;;;;;;;4.50;1.70;;;23.60;61.20;;;;;;219977;1270;24254;-51
2022/08/31 07:36:19;;;;;;;5.80;1.80;;;23.60;61.10;;;;;;220133;1267;22637;-54
2022/08/31 07:47:13;;;;;;;4.60;2.20;;;23.60;61.20;;;;;;219934;1267;22553;-54
2022/08/31 07:52:24;;;;;;;3.60;1.60;;;23.60;61.20;;;;;;219837;1268;25238;-51
2022/08/31 07:57:55;;;;;;;2.60;1.60;;;23.70;61.20;;;;;;219431;1269;24258;-54
2022/08/31 08:03:05;;;;;;;3.40;1.90;;;23.80;61.30;;;;;;219897;1270;22691;-51
2022/08/31 08:08:33;;;;;;;2.70;1.80;;;23.70;61.30;;;;;;219925;1269;24222;-52
2022/08/31 08:14:15;;;;;;;3.20;1.70;;;23.80;61.30;;;;;;219606;1270;24694;-53
2022/08/31 08:19:38;;;;;;;3.20;1.60;;;23.80;61.20;;;;;;219803;1270;22535;-54
2022/08/31 08:24:46;;;;;;;3.60;1.90;;;23.80;61.30;;;;;;219978;1268;23973;-53
2022/08/31 08:30:13;;;;;;;3.70;1.80;;;23.80;61.70;;;;;;219849;1270;25244;-50
2022/08/31 08:35:18;;;;;;;3.90;1.90;;;23.80;61.40;;;;;;220326;1267;22703;-55
2022/08/31 08:40:42;;;;;;;3.20;1.60;;;23.80;61.30;;;;;;219941;1270;24361;-54
2022/08/31 08:45:54;;;;;;;6.60;1.70;;;23.80;61.60;;;;;;219940;1267;22548;-54
2022/08/31 08:51:18;;;;;;;4.10;1.70;;;23.80;61.30;;;;;;220286;1267;24528;-54
2022/08/31 08:56:31;;;;;;;4.50;1.90;;;23.80;61.00;;;;;;219979;1267;24266;-54
2022/08/31 09:01:39;;;;;;;2.40;1.60;;;23.90;61.40;;;;;;220026;1267;23917;-53
2022/08/31 09:07:03;;;;;;;2.40;1.60;;;23.80;61.60;;;;;;219979;1267;22708;-55
2022/08/31 09:12:29;;;;;;;2.60;1.50;;;23.80;61.20;;;;;;220098;1267;25304;-49
2022/08/31 09:17:49;;;;;;;2.40;1.30;;;23.80;61.30;;;;;;220453;1267;24201;-53
2022/08/31 09:22:59;;;;;;;4.70;1.60;;;23.80;61.70;;;;;;220461;1267;22559;-53
2022/08/31 09:28:13;;;;;;;3.90;1.60;;;23.80;61.90;;;;;;220141;1267;22809;-54
2022/08/31 09:33:31;;;;;;;2.60;1.40;;;23.80;61.80;;;;;;220414;1267;22659;-55
2022/08/31 09:38:39;;;;;;;3.70;1.70;;;23.80;62.20;;;;;;220181;1267;24269;-53
2022/08/31 09:43:44;;;;;;;3.00;1.70;;;23.90;61.50;;;;;;220387;1267;23101;-55
2022/08/31 09:48:55;;;;;;;2.80;1.50;;;23.90;61.40;;;;;;220696;1267;24429;-53
2022/08/31 09:59:42;;;;;;;5.00;2.00;;;23.90;61.20;;;;;;220443;1267;24227;-53
2022/08/31 10:04:56;;;;;;;3.10;1.80;;;24.00;61.10;;;;;;220021;1270;23618;-55
2022/08/31 10:10:16;;;;;;;4.30;1.50;;;24.10;61.10;;;;;;220153;1267;24218;-56
2022/08/31 10:15:54;;;;;;;2.70;1.90;;;24.10;61.00;;;;;;220178;1267;24799;-52
2022/08/31 10:21:06;;;;;;;;;;;24.10;60.80;;;;;;220249;1270;22512;-53
2022/08/31 10:26:18;;;;;;;3.40;1.80;;;24.20;60.90;;;;;;220152;1267;24325;-54
2022/08/31 10:31:28;;;;;;;3.20;1.60;;;24.20;60.90;;;;;;219966;1269;25207;-54
2022/08/31 10:36:36;;;;;;;;;;;24.20;60.90;;;;;;219936;1267;22567;-52
2022/08/31 10:41:47;;;;;;;2.90;1.50;;;24.20;60.80;;;;;;219909;1270;22554;-55
2022/08/31 10:47:04;;;;;;;4.30;1.50;;;24.20;60.80;;;;;;220765;1267;22529;-57
2022/08/31 10:52:57;;;;;;;2.60;1.40;;;24.20;60.80;;;;;;220078;1268;24764;-54
2022/08/31 10:58:20;;;;;;;2.80;1.70;;;24.30;60.90;;;;;;219949;1269;25397;-54
2022/08/31 11:03:49;;;;;;;2.80;1.60;;;24.30;61.20;;;;;;219827;1268;22596;-53
2022/08/31 11:09:18;;;;;;;4.00;1.40;;;24.30;61.00;;;;;;220128;1270;26501;-54
2022/08/31 11:14:42;;;;;;;3.80;1.50;;;24.20;60.90;;;;;;220042;1270;22649;-56
2022/08/31 11:20:23;;;;;;;2.20;1.40;;;24.20;61.20;;;;;;220018;1268;25465;-55
2022/08/31 11:25:51;;;;;;;2.40;1.50;;;24.20;60.40;;;;;;220339;1267;25450;-54
2022/08/31 11:30:55;;;;;;;3.00;1.80;;;24.20;60.90;;;;;;220084;1270;24309;-54
2022/08/31 11:36:08;;;;;;;2.90;1.70;;;24.20;60.70;;;;;;219977;1267;22552;-54
2022/08/31 11:41:45;;;;;;;2.60;1.60;;;24.30;60.70;;;;;;219945;1270;24238;-54
2022/08/31 11:47:27;;;;;;;2.50;1.50;;;24.30;60.70;;;;;;220085;1268;22636;-58
2022/08/31 11:52:40;;;;;;;;;;;24.30;60.70;;;;;;219916;1270;24224;-54
2022/08/31 11:58:01;;;;;;;2.80;1.50;;;24.30;60.60;;;;;;220024;1270;24831;-54
2022/08/31 12:03:08;;;;;;;2.70;1.60;;;24.40;60.30;;;;;;219833;1270;22519;-53
2022/08/31 12:08:17;;;;;;;2.60;1.50;;;24.40;60.10;;;;;;219924;1270;22543;-54
2022/08/31 12:13:50;;;;;;;3.20;1.40;;;24.40;59.90;;;;;;220005;1270;22602;-55
2022/08/31 12:19:02;;;;;;;2.30;1.50;;;24.40;60.20;;;;;;220045;1270;22539;-53
2022/08/31 12:24:15;;;;;;;3.30;1.60;;;24.50;60.10;;;;;;219800;1271;23036;-54
2022/08/31 12:29:37;;;;;;;2.80;1.70;;;24.50;60.20;;;;;;219966;1270;25449;-54
2022/08/31 12:35:13;;;;;;;2.50;1.70;;;24.60;60.30;;;;;;220104;1270;24299;-53
2022/08/31 12:40:20;;;;;;;2.60;1.60;;;24.50;60.00;;;;;;220022;1270;22566;-56
2022/08/31 12:46:08;;;;;;;2.90;1.60;;;24.60;60.10;;;;;;220125;1270;22574;-54
2022/08/31 12:51:21;;;;;;;;;;;24.60;60.20;;;;;;220627;1267;22729;-54
2022/08/31 12:56:28;;;;;;;2.30;1.50;;;24.60;60.10;;;;;;220873;1268;22702;-55
2022/08/31 13:01:45;;;;;;;2.50;1.40;;;24.60;59.80;;;;;;220101;1270;26572;-54
2022/08/31 13:06:53;;;;;;;2.40;1.40;;;24.70;59.50;;;;;;220381;1267;24217;-54
2022/08/31 13:11:59;;;;;;;2.70;1.60;;;24.70;59.60;;;;;;220709;1267;24200;-52
2022/08/31 13:17:16;;;;;;;2.30;1.50;;;24.70;59.50;;;;;;220476;1267;22665;-51
2022/08/31 13:22:47;;;;;;;2.40;1.40;;;24.70;59.50;;;;;;220033;1267;22688;-54
2022/08/31 13:27:51;;;;;;;2.80;1.70;;;24.70;59.60;;;;;;219991;1271;22531;-58
2022/08/31 13:32:55;;;;;;;2.70;1.70;;;24.80;59.60;;;;;;220177;1271;22566;-53
2022/08/31 13:38:03;;;;;;;3.00;1.60;;;24.70;59.40;;;;;;220049;1270;24195;-53
2022/08/31 13:43:25;;;;;;;2.20;1.50;;;24.80;59.40;;;;;;220031;1270;24219;-54
2022/08/31 13:48:36;;;;;;;3.50;1.80;;;24.80;59.30;;;;;;220369;1271;22576;-55
2022/08/31 13:53:42;;;;;;;2.70;1.70;;;24.80;59.20;;;;;;219911;1269;22532;-52
2022/08/31 13:58:46;;;;;;;2.60;1.60;;;24.70;59.20;;;;;;220085;1270;25316;-52
2022/08/31 14:03:58;;;;;;;2.30;1.80;;;24.70;59.00;;;;;;219965;1270;23855;-54
2022/08/31 14:09:16;;;;;;;3.20;2.10;;;24.70;58.90;;;;;;220129;1270;24240;-54
2022/08/31 14:14:28;;;;;;;3.30;2.00;;;24.80;59.00;;;;;;220436;1271;22742;-54
2022/08/31 14:19:38;;;;;;;8.70;4.30;;;24.90;58.90;;;;;;220412;1271;25240;-52
2022/08/31 14:24:45;;;;;;;4.60;2.70;;;24.90;59.00;;;;;;220284;1270;24205;-52
2022/08/31 14:29:53;;;;;;;;;;;24.90;59.00;;;;;;220154;1270;24277;-50
2022/08/31 14:34:57;;;;;;;4.30;2.40;;;24.90;58.70;;;;;;220171;1271;22535;-53
2022/08/31 14:40:06;;;;;;;4.60;3.00;;;24.90;59.00;;;;;;220256;1271;22531;-52
2022/08/31 14:45:20;;;;;;;4.80;2.70;;;24.90;58.70;;;;;;220199;1270;22556;-53
2022/08/31 14:50:26;;;;;;;16.90;4.30;;;24.80;58.60;;;;;;220157;1268;22544;-53
2022/08/31 14:55:30;;;;;;;19.00;4.80;;;24.90;62.90;;;;;;220014;1268;22512;-50
2022/08/31 15:00:47;;;;;;;6.90;3.30;;;24.90;63.10;;;;;;220266;1268;22535;-55
2022/08/31 15:05:58;;;;;;;5.60;2.70;;;24.90;59.50;;;;;;220404;1268;25370;-54
2022/08/31 15:11:14;;;;;;;9.30;3.40;;;24.90;59.80;;;;;;220179;1268;24575;-51
2022/08/31 15:16:18;;;;;;;4.20;2.30;;;24.90;59.50;;;;;;220165;1268;22551;-54
2022/08/31 15:21:25;;;;;;;8.40;3.80;;;24.90;59.50;;;;;;220094;1271;22580;-54
2022/08/31 15:26:30;;;;;;;8.70;3.00;;;24.90;59.80;;;;;;220678;1267;22553;-54
2022/08/31 15:31:35;;;;;;;7.30;3.30;;;24.90;59.60;;;;;;220137;1270;26269;-50
2022/08/31 15:36:39;;;;;;;5.90;2.80;;;24.90;59.40;;;;;;220250;1271;24279;-50
2022/08/31 15:41:43;;;;;;;6.90;2.80;;;24.90;59.70;;;;;;220115;1268;22554;-53
2022/08/31 15:52:10;;;;;;;8.40;3.30;;;24.90;59.40;;;;;;220169;1268;22533;-55
2022/08/31 15:57:14;;;;;;;6.60;3.00;;;24.90;59.30;;;;;;220249;1268;25239;-53
2022/08/31 16:02:19;;;;;;;5.50;2.80;;;24.80;59.00;;;;;;220420;1268;24294;-54
2022/08/31 16:07:25;;;;;;;6.10;2.50;;;24.80;59.10;;;;;;220667;1268;22711;-56
2022/08/31 16:12:29;;;;;;;7.20;2.60;;;24.80;59.00;;;;;;220348;1268;24169;-53
2022/08/31 16:17:32;;;;;;;6.30;2.60;;;24.80;58.80;;;;;;220184;1267;24234;-52
2022/08/31 16:22:37;;;;;;;8.00;2.90;;;24.80;59.20;;;;;;220158;1268;23939;-53
2022/08/31 16:27:42;;;;;;;4.20;2.40;;;24.80;59.70;;;;;;220611;1268;23222;-51
2022/08/31 16:32:45;;;;;;;8.00;2.60;;;24.80;59.70;;;;;;220279;1268;22520;-51
2022/08/31 16:37:54;;;;;;;5.60;2.50;;;24.70;59.80;;;;;;220020;1273;22577;-51
2022/08/31 16:43:00;;;;;;;5.30;2.40;;;24.70;59.80;;;;;;220477;1268;22668;-50
2022/08/31 16:53:30;;;;;;;5.80;2.20;;;24.70;59.80;;;;;;219540;1268;1345237;-52
2022/08/31 16:58:34;;;;;;;5.70;2.30;;;24.70;59.80;;;;;;220275;1268;25037;-53
2022/08/31 17:03:56;;;;;;;4.50;2.20;;;24.70;59.80;;;;;;220462;1268;24247;-55
2022/08/31 17:09:06;;;;;;;4.60;2.40;;;24.70;59.70;;;;;;220691;1268;22547;-51
2022/08/31 17:14:21;;;;;;;3.90;2.10;;;24.70;59.80;;;;;;220140;1268;24222;-51
2022/08/31 17:19:25;;;;;;;4.30;2.40;;;24.70;59.70;;;;;;220334;1267;25251;-49
2022/08/31 17:24:37;;;;;;;3.80;1.90;;;24.70;59.80;;;;;;220258;1268;25265;-50
2022/08/31 17:29:43;;;;;;;;;;;24.60;59.70;;;;;;220211;1267;22518;-52
2022/08/31 17:34:50;;;;;;;5.00;1.90;;;24.60;59.70;;;;;;220136;1267;22557;-58
2022/08/31 17:40:06;;;;;;;5.80;2.50;;;24.60;59.70;;;;;;220187;1267;26453;-52
2022/08/31 17:45:12;;;;;;;3.00;2.00;;;24.60;60.10;;;;;;220143;1267;24249;-53
2022/08/31 17:50:18;;;;;;;4.20;2.40;;;24.60;59.70;;;;;;220546;1267;26195;-52
2022/08/31 17:55:22;;;;;;;4.10;2.20;;;24.60;59.70;;;;;;220773;1268;22553;-53
2022/08/31 18:00:27;;;;;;;4.70;2.20;;;24.60;59.60;;;;;;220456;1267;22544;-54
2022/08/31 18:05:32;;;;;;;4.10;2.00;;;24.50;59.50;;;;;;220736;1267;24230;-53
2022/08/31 18:10:37;;;;;;;3.90;2.30;;;24.50;59.80;;;;;;220892;1267;22629;-54
2022/08/31 18:15:42;;;;;;;3.80;2.10;;;24.50;59.70;;;;;;220364;1267;22560;-51
2022/08/31 18:20:46;;;;;;;4.80;1.90;;;24.50;59.60;;;;;;220204;1267;22578;-53
2022/08/31 18:25:50;;;;;;;3.60;1.90;;;24.50;59.70;;;;;;220384;1267;26472;-53
2022/08/31 18:30:56;;;;;;;4.80;2.00;;;24.50;59.60;;;;;;220505;1267;22723;-52
2022/08/31 18:36:01;;;;;;;3.30;2.00;;;24.50;59.70;;;;;;220480;1267;25238;-54
2022/08/31 18:46:29;;;;;;;3.30;1.90;;;24.50;59.80;;;;;;220100;1268;22538;-52
2022/08/31 18:51:37;;;;;;;4.60;2.00;;;24.40;59.80;;;;;;220324;1267;24101;-53
2022/08/31 18:56:43;;;;;;;3.10;1.70;;;24.40;59.80;;;;;;220394;1267;22532;-54
2022/08/31 19:01:47;;;;;;;3.80;1.90;;;24.40;59.80;;;;;;220179;1270;22597;-52
2022/08/31 19:06:52;;;;;;;3.60;2.10;;;24.40;59.90;;;;;;220511;1268;24361;-53
2022/08/31 19:12:01;;;;;;;2.70;1.90;;;24.40;59.80;;;;;;220322;1267;22725;-56
2022/08/31 19:17:07;;;;;;;3.00;1.80;;;24.40;59.90;;;;;;220469;1267;22557;-53
2022/08/31 19:22:17;;;;;;;5.60;2.00;;;24.30;59.70;;;;;;220281;1270;25420;-54
2022/08/31 19:27:28;;;;;;;3.80;1.90;;;24.30;60.10;;;;;;220274;1268;22637;-56
2022/08/31 19:32:39;;;;;;;3.80;2.30;;;24.30;59.80;;;;;;220058;1270;25567;-53
2022/08/31 19:37:51;;;;;;;4.50;1.80;;;24.30;60.00;;;;;;219356;1274;24279;-52
2022/08/31 19:42:59;;;;;;;3.50;2.00;;;24.30;59.70;;;;;;219344;1274;24414;-52
2022/08/31 19:48:28;;;;;;;2.70;1.80;;;24.30;59.90;;;;;;219274;1275;24466;-53
2022/08/31 19:53:32;;;;;;;3.80;2.10;;;24.30;59.90;;;;;;219399;1273;22542;-55
2022/08/31 19:58:37;;;;;;;2.50;1.70;;;24.30;59.90;;;;;;219381;1274;25240;-50
2022/08/31 20:03:46;;;;;;;3.50;1.90;;;24.20;59.80;;;;;;219305;1275;25477;-54
2022/08/31 20:08:52;;;;;;;3.80;1.60;;;24.30;59.90;;;;;;220060;1267;22534;-54
2022/08/31 20:14:03;;;;;;;3.00;1.90;;;24.20;59.80;;;;;;220156;1267;22694;-54
2022/08/31 20:19:38;;;;;;;3.30;1.70;;;24.30;59.90;;;;;;220014;1267;25484;-53
2022/08/31 20:24:43;;;;;;;2.80;1.70;;;24.20;60.10;;;;;;220097;1267;22568;-52
2022/08/31 20:29:47;;;;;;;4.00;2.30;;;24.20;59.90;;;;;;220098;1270;25500;-56
2022/08/31 20:34:57;;;;;;;3.60;1.90;;;24.20;59.90;;;;;;219963;1270;22482;-51
2022/08/31 20:40:09;;;;;;;3.40;1.80;;;24.20;59.90;;;;;;220243;1267;23173;-52
2022/08/31 20:45:20;;;;;;;2.60;1.90;;;24.10;59.90;;;;;;220238;1267;22610;-53
2022/08/31 20:50:48;;;;;;;2.70;1.80;;;24.10;59.90;;;;;;220298;1267;24728;-55
2022/08/31 20:55:55;;;;;;;3.30;1.80;;;24.10;59.90;;;;;;220026;1269;24149;-50
2022/08/31 21:01:05;;;;;;;3.50;1.90;;;24.10;59.90;;;;;;220188;1269;22584;-53
2022/08/31 21:06:11;;;;;;;3.00;1.80;;;24.10;59.90;;;;;;220246;1270;24397;-54
2022/08/31 21:11:20;;;;;;;2.80;1.60;;;24.00;59.90;;;;;;220477;1267;24795;-53
2022/08/31 21:16:25;;;;;;;5.20;1.90;;;24.00;59.90;;;;;;220615;1267;24212;-54
2022/08/31 21:21:29;;;;;;;3.80;2.20;;;24.00;59.90;;;;;;220469;1267;25307;-54
2022/08/31 21:26:34;;;;;;;3.30;1.90;;;24.00;60.00;;;;;;220579;1267;22694;-55
2022/08/31 21:31:47;;;;;;;4.20;1.90;;;24.00;60.00;;;;;;220528;1267;22564;-55
2022/08/31 21:37:07;;;;;;;3.50;1.70;;;24.00;60.00;;;;;;220206;1267;25782;-54
2022/08/31 21:42:12;;;;;;;3.10;2.00;;;24.00;60.00;;;;;;220095;1267;22986;-53
2022/08/31 21:47:17;;;;;;;2.90;1.70;;;23.90;59.90;;;;;;220680;1267;22551;-51
2022/08/31 21:52:23;;;;;;;4.00;2.00;;;23.90;60.00;;;;;;220460;1267;24235;-50
2022/08/31 21:57:29;;;;;;;4.70;1.80;;;23.90;60.00;;;;;;220459;1267;22829;-56
2022/08/31 22:02:35;;;;;;;3.40;1.80;;;23.90;60.00;;;;;;220280;1267;22567;-53
2022/08/31 22:07:39;;;;;;;3.60;1.90;;;23.90;60.10;;;;;;220590;1267;22538;-58
2022/08/31 22:12:42;;;;;;;3.70;1.90;;;23.90;60.30;;;;;;220554;1267;25232;-54
2022/08/31 22:17:47;;;;;;;3.60;2.20;;;23.90;60.00;;;;;;220301;1267;24279;-53
2022/08/31 22:23:20;;;;;;;2.90;1.70;;;23.80;59.90;;;;;;219506;1273;24225;-57
2022/08/31 22:28:26;;;;;;;3.60;1.70;;;23.90;60.00;;;;;;219344;1274;22697;-52
2022/08/31 22:33:30;;;;;;;2.80;1.90;;;23.90;60.00;;;;;;219690;1272;22540;-52
2022/08/31 22:38:34;;;;;;;3.70;2.00;;;23.80;60.00;;;;;;219408;1270;24196;-49
2022/08/31 22:43:39;;;;;;;4.40;1.90;;;23.80;60.00;;;;;;220015;1267;24215;-54
2022/08/31 22:48:42;;;;;;;3.10;1.60;;;23.80;60.00;;;;;;220205;1267;22611;-54
2022/08/31 22:53:48;;;;;;;5.40;2.10;;;23.80;60.00;;;;;;220125;1267;22544;-52
2022/08/31 22:58:54;;;;;;;3.20;1.60;;;23.80;60.00;;;;;;220030;1267;24236;-54
2022/08/31 23:04:00;;;;;;;4.00;1.90;;;23.80;60.00;;;;;;220237;1270;24215;-53
2022/08/31 23:09:08;;;;;;;3.20;1.80;;;23.80;60.00;;;;;;220348;1267;26855;-51
2022/08/31 23:14:12;;;;;;;3.30;1.90;;;23.80;60.00;;;;;;220047;1267;22688;-49
2022/08/31 23:19:19;;;;;;;3.60;1.90;;;23.80;60.10;;;;;;219991;1267;23004;-51
2022/08/31 23:24:33;;;;;;;2.90;1.70;;;23.80;60.00;;;;;;219937;1269;22644;-51
2022/08/31 23:29:44;;;;;;;3.60;2.00;;;23.70;60.00;;;;;;220114;1267;22554;-53
2022/08/31 23:34:49;;;;;;;2.70;1.70;;;23.80;60.00;;;;;;220428;1267;22549;-51
2022/08/31 23:39:54;;;;;;;3.00;1.80;;;23.70;60.00;;;;;;220490;1268;22548;-49
2022/08/31 23:44:58;;;;;;;2.70;1.90;;;23.70;60.00;;;;;;220065;1267;25259;-56
2022/08/31 23:50:06;;;;;;;4.00;1.80;;;23.70;60.00;;;;;;220384;1267;22559;-53
2022/08/31 23:55:10;;;;;;;3.60;1.90;;;23.70;60.00;;;;;;220241;1267;22737;-50
